Minnetrista, Minnesota
Current Conditions -  °F | °C
As of 10:53 AM on Friday 24 Oct 2014 (Local Time) from KFCM Reporting Station
Clear Clear  
Wind Chill: 59°   Ceiling: Unl
Heat Index: 59°   Visibility: 9mi
Dew Point: 50°   Wind: 7mph
Humidity: 72%   Direction: 150°SSE
Pressure: 29.86"   Gusts: NA
Location:  44.8587°N, 93.7796°W
Report Text: KFCM 241553Z 15006KT 9SM CLR 15/10 A2986 RMK AO2 SLP115 T01500100
Loading
Personal Weather Stations






























Interactive Weather Map
Tropical Storm Tracking
New forecast layout! Learn more

10-Day Weather Forecast

Advertisements
Track Severe Weather on mobile